• Join FlightAware (Why Join?)
  • Login
  • US Flag 
12:25AM EST


 

Airport Tracker/Info


-or-


 

Live Flight TrackerFlight Track Log ✈ AIE846 ✈ 20-Aug-2013 ✈ CYMT - CYWK

Flight Track Log - Related Links

Times and Time Zones

All times are in EDT time to prevent confusion due to time zone crossing. See the AIE846 flight status page for this flight to view local times or setup timezone preferences in your user account.

Time Position Orientation Groundspeed Altitude Reporting Facility
EDT Latitude Longitude Course Direction KTS MPH feet Rate Location/Type
09:36AM 49.7500 -74.5667 69° East 120 138 3,400  Level Montreal Center
09:37AM 49.7667 -74.5000 69° East 160 184 4,400 1,020 Climbing Montreal Center
09:38AM 49.8000 -74.4500 44° Northeast 190 219 5,500 1,020 Climbing Montreal Center
09:39AM 49.8333 -74.3833 52° Northeast 190 219 6,500 960 Climbing Montreal Center
09:40AM 49.8667 -74.3167 52° Northeast 200 230 7,500 1,020 Climbing Montreal Center
09:41AM 49.9000 -74.2500 52° Northeast 200 230 8,600 1,020 Climbing Montreal Center
09:42AM 49.9333 -74.1667 58° Northeast 200 230 9,600 960 Climbing Montreal Center
09:43AM 49.9667 -74.0833 58° Northeast 210 242 10,600 900 Climbing Montreal Center
09:44AM 49.9833 -74.0333 63° Northeast 210 242 11,400 900 Climbing Montreal Center
09:45AM 50.0333 -73.9500 47° Northeast 200 230 12,400 780 Climbing Montreal Center
09:46AM 50.0500 -73.8667 73° East 200 230 13,000 660 Climbing Montreal Center
09:47AM 50.1000 -73.8167 33° Northeast 200 230 13,800 720 Climbing Montreal Center
09:48AM 50.1333 -73.7333 58° Northeast 210 242 14,500 660 Climbing Montreal Center
09:49AM 50.1667 -73.6500 58° Northeast 210 242 15,200 660 Climbing Montreal Center
09:50AM 50.2000 -73.5667 58° Northeast 210 242 15,900 540 Climbing Montreal Center
09:51AM 50.2333 -73.5167 44° Northeast 220 253 16,300 420 Climbing Montreal Center
09:52AM 50.2667 -73.4333 58° Northeast 220 253 16,800 480 Climbing Montreal Center
09:53AM 50.3000 -73.3500 58° Northeast 220 253 17,300 420 Climbing Montreal Center
09:54AM 50.3500 -73.2833 40° Northeast 220 253 17,700 420 Climbing Montreal Center
09:55AM 50.3833 -73.2000 58° Northeast 220 253 18,200 420 Climbing Montreal Center
09:56AM 50.4167 -73.1167 58° Northeast 220 253 18,600 360 Climbing Montreal Center
09:57AM 50.4333 -73.0333 73° East 220 253 19,000 420 Climbing Montreal Center
09:58AM 50.4833 -72.9500 47° Northeast 220 253 19,500 420 Climbing Montreal Center
09:59AM 50.5167 -72.8667 58° Northeast 220 253 19,900 480 Climbing Montreal Center
10:00AM 50.5500 -72.8167 44° Northeast 220 253 20,500 480 Climbing Montreal Center
10:01AM 50.5833 -72.7333 58° Northeast 210 242 20,900 360 Climbing Montreal Center
10:02AM 50.6167 -72.6500 58° Northeast 210 242 21,300 420 Climbing Montreal Center
10:03AM 50.6500 -72.5667 58° Northeast 210 242 21,800 420 Climbing Montreal Center
10:04AM 50.6833 -72.4833 58° Northeast 210 242 22,200 360 Climbing Montreal Center
10:05AM 50.7333 -72.4333 32° Northeast 200 230 22,600 300 Climbing Montreal Center
10:06AM 50.7500 -72.3500 72° East 210 242 22,900 300 Climbing Montreal Center
10:07AM 50.7833 -72.2667 58° Northeast 200 230 23,300 300 Climbing Montreal Center
10:08AM 50.8167 -72.2167 43° Northeast 200 230 23,600 300 Climbing Montreal Center
10:09AM 50.8500 -72.1333 58° Northeast 200 230 23,900 360 Climbing Montreal Center
10:10AM 50.8833 -72.0500 58° Northeast 200 230 24,400 360 Climbing Montreal Center
10:11AM 50.9167 -71.9833 52° Northeast 190 219 24,700 300 Climbing Montreal Center
10:12AM 50.9500 -71.9000 58° Northeast 190 219 25,000 120 Climbing Montreal Center
10:13AM 50.9833 -71.8500 43° Northeast 200 230 25,000  Level Montreal Center
10:14AM 51.0000 -71.7667 72° East 210 242 25,000  Level Montreal Center
10:15AM 51.0333 -71.6833 58° Northeast 210 242 25,000  Level Montreal Center
10:16AM 51.0667 -71.6000 57° Northeast 220 253 25,000  Level Montreal Center
10:17AM 51.1000 -71.5167 57° Northeast 220 253 25,000  Level Montreal Center
10:18AM 51.1500 -71.4333 46° Northeast 220 253 25,000  Level Montreal Center
10:19AM 51.1833 -71.3500 57° Northeast 220 253 25,000  Level Montreal Center
10:20AM 51.2000 -71.2667 72° East 230 265 25,000  Level Montreal Center
10:22AM 51.2833 -71.1167 48° Northeast 230 265 25,000  Level Montreal Center
10:23AM 51.3167 -71.0000 65° Northeast 230 265 25,000  Level Montreal Center
10:24AM 51.3667 -70.9167 46° Northeast 230 265 25,000  Level Montreal Center
10:25AM 51.3833 -70.8333 72° East 230 265 25,000  Level Montreal Center
10:26AM 51.4167 -70.7500 57° Northeast 230 265 25,000  Level Montreal Center
10:27AM 51.4667 -70.6667 46° Northeast 230 265 25,000  Level Montreal Center
10:28AM 51.5000 -70.5833 57° Northeast 230 265 25,000  Level Montreal Center
10:29AM 51.5333 -70.5000 57° Northeast 230 265 25,000  Level Montreal Center
10:30AM 51.5667 -70.4167 57° Northeast 230 265 25,000  Level Montreal Center
10:31AM 51.6000 -70.3167 62° Northeast 230 265 25,000  Level Montreal Center
10:32AM 51.6333 -70.2333 57° Northeast 230 265 25,000  Level Montreal Center
10:33AM 51.6833 -70.1500 46° Northeast 230 265 25,000  Level Montreal Center
10:34AM 51.7000 -70.0667 72° East 240 276 25,000  Level Montreal Center
10:35AM 51.7333 -69.9833 57° Northeast 240 276 25,000  Level Montreal Center
10:36AM 51.7833 -69.9000 46° Northeast 230 265 25,000  Level Montreal Center
10:37AM 51.8167 -69.8000 62° Northeast 240 276 25,000  Level Montreal Center
10:38AM 51.8667 -69.7167 46° Northeast 240 276 25,000  Level Montreal Center
10:39AM 51.8833 -69.6333 72° East 230 265 25,000  Level Montreal Center
10:40AM 51.9333 -69.5167 55° Northeast 240 276 25,000  Level Montreal Center
10:41AM 51.9667 -69.4333 57° Northeast 230 265 25,000  Level Montreal Center
10:42AM 52.0000 -69.3333 62° Northeast 240 276 25,000  Level Montreal Center
10:43AM 52.0333 -69.2500 57° Northeast 240 276 25,000  Level Montreal Center
10:44AM 52.0667 -69.1667 57° Northeast 230 265 25,000  Level Montreal Center
10:45AM 52.1167 -69.0833 46° Northeast 220 253 25,000  Level Montreal Center
10:46AM 52.1333 -68.9833 75° East 220 253 25,000  Level Montreal Center
10:47AM 52.1667 -68.9333 43° Northeast 210 242 25,000  Level Montreal Center
10:48AM 52.2000 -68.8500 57° Northeast 190 219 25,000  Level Montreal Center
10:49AM 52.2333 -68.7500 61° Northeast 200 230 25,000  Level Montreal Center
10:50AM 52.2500 -68.7000 61° Northeast 200 230 25,000  Level Montreal Center
10:51AM 52.2833 -68.6333 51° Northeast 170 196 25,000  Level Montreal Center
10:52AM 52.3167 -68.5500 57° Northeast 190 219 25,000  Level Montreal Center
10:53AM 52.3500 -68.4833 51° Northeast 190 219 25,000  Level Montreal Center
10:54AM 52.3667 -68.4000 72° East 190 219 25,000  Level Montreal Center
10:55AM 52.4000 -68.3167 57° Northeast 190 219 25,000  Level Montreal Center
10:56AM 52.4333 -68.2500 51° Northeast 190 219 25,000  Level Montreal Center
10:57AM 52.4667 -68.1833 51° Northeast 190 219 25,000  Level Montreal Center
10:58AM 52.4833 -68.1000 72° East 190 219 25,000  Level Montreal Center
10:59AM 52.5167 -68.0167 57° Northeast 210 242 25,000 -780 Level Montreal Center
11:00AM 52.5500 -67.9167 61° Northeast 230 265 23,500 -1,800 Descending Montreal Center
11:01AM 52.5833 -67.8000 65° Northeast 290 334 21,400 -2,220 Descending Montreal Center
11:02AM 52.6333 -67.6833 55° Northeast 320 368 19,100 -2,100 Descending Montreal Center
11:03AM 52.6833 -67.5667 55° Northeast 290 334 17,300 -1,140 Descending Montreal Center
11:04AM 52.7167 -67.4667 61° Northeast 250 288 16,900 -1,140 Descending Montreal Center
11:05AM 52.7500 -67.3833 57° Northeast 250 288 15,100 -1,200 Descending Montreal Center
11:06AM 52.7833 -67.2667 65° Northeast 260 299 14,500 -960 Descending Montreal Center
11:07AM 52.8333 -67.1667 50° Northeast 270 311 13,200 -1,320 Descending Montreal Center
11:09AM 52.8955 -67.0197 56° Northeast  Level FlightAware Approximate
11:16AM 52.9167 -66.8500 180° South  Level FlightAware Approximate
11:17AM 52.9219 -66.8644 180° South  Level Estimated
11:18AM 52.9219 -66.8644 180° South  Level Estimated
11:19AM 52.9219 -66.8644 180° South  Level Estimated
11:20AM 52.9219 -66.8644 180° South  Level Estimated
11:21AM 52.9219 -66.8644 180° South  Level Estimated
11:22AM 52.9219 -66.8644 180° South  Level Estimated
11:23AM 52.9219 -66.8644 180° South  Level Estimated
11:24AM 52.9219 -66.8644 180° South  Level Estimated
11:25AM 52.9219 -66.8644 180° South  Level Estimated
11:26AM 52.9219 -66.8644 180° South  Level Estimated
11:27AM 52.9219 -66.8644 180° South  Level Estimated
11:28AM 52.9219 -66.8644 180° South  Level Estimated